createdAt,value
2022-11-09T00:01:40.669Z,78.83
2022-11-09T00:04:08.235Z,79.23
2022-11-09T00:06:35.820Z,78.98
2022-11-09T00:09:07.824Z,79.21
2022-11-09T00:11:35.250Z,79.10
2022-11-09T00:14:01.748Z,79.29
2022-11-09T00:16:28.267Z,79.14
2022-11-09T00:18:56.329Z,79.09
2022-11-09T00:21:24.858Z,79.56
2022-11-09T00:23:52.881Z,79.36
2022-11-09T00:26:21.122Z,79.28
2022-11-09T00:28:48.295Z,79.13
2022-11-09T00:31:20.392Z,79.60
2022-11-09T00:33:55.607Z,79.35
2022-11-09T00:36:23.949Z,79.30
2022-11-09T00:38:56.284Z,79.23
2022-11-09T00:41:23.221Z,79.13
2022-11-09T00:43:50.922Z,79.00
2022-11-09T00:46:18.200Z,78.97
2022-11-09T00:48:45.992Z,79.09
2022-11-09T00:51:12.972Z,79.16
2022-11-09T00:53:39.613Z,79.31
2022-11-09T00:56:10.418Z,79.62
2022-11-09T00:58:38.643Z,79.28
2022-11-09T01:01:13.744Z,79.21
2022-11-09T01:03:40.908Z,79.19
2022-11-09T01:06:08.783Z,79.30
2022-11-09T01:08:36.150Z,78.96
2022-11-09T01:11:07.649Z,79.11
2022-11-09T01:13:35.335Z,79.12
2022-11-09T01:16:06.166Z,78.98
2022-11-09T01:18:33.118Z,79.04
2022-11-09T01:20:59.654Z,79.32
2022-11-09T01:23:26.686Z,79.42
2022-11-09T01:26:01.095Z,79.21
2022-11-09T01:28:28.322Z,79.24
2022-11-09T01:30:55.050Z,79.47
2022-11-09T01:33:22.024Z,79.75
2022-11-09T01:35:48.696Z,79.44
2022-11-09T01:38:15.219Z,79.31
2022-11-09T01:40:41.807Z,79.25
2022-11-09T01:43:17.247Z,79.42
2022-11-09T01:45:48.559Z,79.51
2022-11-09T01:48:24.441Z,79.50
2022-11-09T01:50:55.889Z,79.82
2022-11-09T01:53:35.200Z,79.79
2022-11-09T01:56:05.107Z,79.82
2022-11-09T01:58:55.372Z,80.05
2022-11-09T02:01:22.212Z,79.92
2022-11-09T02:03:54.972Z,80.00
2022-11-09T02:06:23.922Z,80.39
2022-11-09T02:08:53.803Z,80.25
2022-11-09T02:11:22.176Z,80.62
2022-11-09T02:13:53.810Z,80.50
2022-11-09T02:16:20.654Z,80.71
2022-11-09T02:18:56.070Z,80.88
2022-11-09T02:21:25.246Z,80.87
2022-11-09T02:23:51.915Z,80.72
2022-11-09T02:26:25.270Z,81.07
2022-11-09T02:28:54.356Z,80.98
2022-11-09T02:31:25.392Z,81.06
2022-11-09T02:33:51.863Z,81.48
2022-11-09T02:36:18.404Z,81.37
2022-11-09T02:38:45.189Z,81.46
2022-11-09T02:41:13.294Z,81.50
2022-11-09T02:43:40.748Z,81.47
2022-11-09T02:46:07.464Z,81.42
2022-11-09T02:48:34.057Z,81.69
2022-11-09T02:51:00.549Z,81.52
2022-11-09T02:53:27.169Z,81.53
2022-11-09T02:55:53.672Z,81.88
2022-11-09T02:58:20.215Z,82.08
2022-11-09T03:00:46.966Z,81.92
2022-11-09T03:03:13.722Z,82.25
2022-11-09T03:05:40.248Z,82.34
2022-11-09T03:08:06.901Z,81.94
2022-11-09T03:10:35.000Z,82.23
2022-11-09T03:13:01.551Z,82.21
2022-11-09T03:15:28.197Z,82.21
2022-11-09T03:17:54.822Z,82.35
2022-11-09T03:20:21.362Z,82.24
2022-11-09T03:22:47.907Z,82.01
2022-11-09T03:25:14.519Z,82.20
2022-11-09T03:27:41.043Z,82.13
2022-11-09T03:30:08.472Z,81.99
2022-11-09T03:32:35.019Z,82.05
2022-11-09T03:35:01.725Z,81.98
2022-11-09T03:37:28.283Z,82.11
2022-11-09T03:39:54.819Z,82.30
2022-11-09T03:42:21.458Z,82.36
2022-11-09T03:44:48.196Z,82.26
2022-11-09T03:47:14.713Z,82.49
2022-11-09T03:49:41.323Z,82.30
2022-11-09T03:52:07.865Z,82.39
2022-11-09T03:54:35.115Z,82.36
2022-11-09T03:57:01.614Z,82.32
2022-11-09T03:59:28.248Z,82.42
2022-11-09T04:01:54.920Z,82.28
2022-11-09T04:04:21.440Z,82.45
2022-11-09T04:06:48.082Z,82.56
2022-11-09T04:09:15.191Z,82.59
2022-11-09T04:11:41.887Z,82.45
2022-11-09T04:14:08.493Z,82.75
2022-11-09T04:16:35.031Z,82.70
2022-11-09T04:19:01.727Z,82.52
2022-11-09T04:21:28.499Z,82.64
2022-11-09T04:23:55.004Z,82.82
2022-11-09T04:26:21.567Z,82.94
2022-11-09T04:28:48.276Z,83.02
2022-11-09T04:31:15.140Z,83.06
2022-11-09T04:33:41.689Z,82.86
2022-11-09T04:36:09.168Z,83.22
2022-11-09T04:38:36.641Z,83.44
2022-11-09T04:41:04.728Z,83.07
2022-11-09T04:43:31.702Z,83.21
2022-11-09T04:46:02.851Z,83.16
2022-11-09T04:48:30.584Z,83.38
2022-11-09T04:51:04.895Z,83.30
2022-11-09T04:53:32.368Z,83.42
2022-11-09T04:55:59.242Z,83.65
2022-11-09T04:58:26.090Z,83.42
2022-11-09T05:00:53.815Z,83.74
2022-11-09T05:03:21.409Z,83.50
2022-11-09T05:05:48.814Z,83.72
2022-11-09T05:08:15.375Z,83.74
2022-11-09T05:10:41.984Z,83.80
2022-11-09T05:13:11.682Z,84.06
2022-11-09T05:15:38.681Z,84.01
2022-11-09T05:18:06.259Z,83.70
2022-11-09T05:20:33.447Z,83.89
2022-11-09T05:23:19.700Z,83.92
2022-11-09T05:25:47.172Z,83.89
2022-11-09T05:28:13.927Z,84.32
2022-11-09T05:30:40.427Z,84.03
2022-11-09T05:33:07.257Z,83.98
2022-11-09T05:35:34.287Z,84.03
2022-11-09T05:38:00.799Z,84.20
2022-11-09T05:40:27.503Z,84.15
2022-11-09T05:42:56.083Z,84.06
2022-11-09T05:48:10.149Z,84.24
2022-11-09T05:50:37.934Z,83.86
2022-11-09T05:53:04.604Z,84.24
2022-11-09T05:55:31.388Z,83.90
2022-11-09T05:57:58.094Z,83.69
2022-11-09T06:00:25.471Z,83.61
2022-11-09T06:02:52.287Z,83.77
2022-11-09T06:05:21.577Z,83.24
2022-11-09T06:07:48.316Z,82.88
2022-11-09T06:10:14.994Z,82.95
2022-11-09T06:12:41.503Z,82.92
2022-11-09T06:15:08.652Z,83.18
2022-11-09T06:17:35.359Z,82.64
2022-11-09T06:20:02.141Z,82.56
2022-11-09T06:22:28.670Z,82.15
2022-11-09T06:24:55.439Z,81.91
2022-11-09T06:27:21.931Z,81.70
2022-11-09T06:29:50.331Z,81.77
2022-11-09T06:32:17.073Z,81.93
2022-11-09T06:34:44.407Z,81.97
2022-11-09T06:37:10.944Z,82.07
2022-11-09T06:39:37.561Z,81.96
2022-11-09T06:42:04.197Z,82.07
2022-11-09T06:44:30.740Z,81.94
2022-11-09T06:46:57.386Z,81.68
2022-11-09T06:49:24.003Z,81.28
2022-11-09T06:51:50.598Z,81.32
2022-11-09T06:54:17.177Z,80.97
2022-11-09T06:56:43.730Z,79.98
2022-11-09T06:59:10.287Z,79.41
2022-11-09T07:01:37.792Z,79.08
2022-11-09T07:04:04.656Z,79.10
2022-11-09T07:06:31.258Z,79.25
2022-11-09T07:08:58.481Z,79.34
2022-11-09T07:11:25.086Z,79.13
2022-11-09T07:13:57.038Z,79.05
2022-11-09T07:16:24.282Z,79.44
2022-11-09T07:18:50.939Z,78.90
2022-11-09T07:21:17.485Z,79.12
2022-11-09T07:23:44.073Z,78.94
2022-11-09T07:26:10.607Z,79.07
2022-11-09T07:28:37.173Z,79.22
2022-11-09T07:31:03.921Z,78.92
2022-11-09T07:33:32.778Z,78.65
2022-11-09T07:36:00.967Z,78.57
2022-11-09T07:38:29.229Z,78.49
2022-11-09T07:40:59.288Z,78.52
2022-11-09T07:43:26.068Z,78.20
2022-11-09T07:45:53.234Z,78.31
2022-11-09T07:48:20.452Z,78.36
2022-11-09T07:50:47.120Z,77.98
2022-11-09T07:53:15.390Z,77.90
2022-11-09T07:55:42.383Z,77.73
2022-11-09T07:58:12.338Z,76.94
2022-11-09T08:00:41.091Z,77.00
2022-11-09T08:03:08.572Z,77.03
2022-11-09T08:05:35.855Z,76.87
2022-11-09T08:08:05.951Z,76.46
2022-11-09T08:10:34.514Z,76.83
2022-11-09T08:13:03.653Z,77.17
2022-11-09T08:15:30.508Z,76.61
2022-11-09T08:18:02.135Z,76.23
2022-11-09T08:20:29.743Z,75.79
2022-11-09T08:23:01.022Z,75.73
2022-11-09T08:25:31.207Z,81.40
2022-11-09T08:27:58.609Z,74.49
2022-11-09T08:30:25.303Z,75.10
2022-11-09T08:32:52.203Z,74.07
2022-11-09T08:35:21.602Z,74.08
2022-11-09T08:37:49.992Z,73.99
2022-11-09T08:40:20.823Z,73.28
2022-11-09T08:42:47.770Z,72.16
2022-11-09T08:45:15.085Z,71.51
2022-11-09T08:47:42.029Z,69.54
2022-11-09T08:50:10.227Z,69.18
2022-11-09T08:52:37.426Z,69.23
2022-11-09T08:55:04.629Z,69.22
2022-11-09T08:57:31.709Z,69.71
2022-11-09T08:59:58.358Z,70.12
2022-11-09T09:02:24.965Z,70.34
2022-11-09T09:04:51.638Z,70.18
2022-11-09T09:07:18.259Z,69.55
2022-11-09T09:09:44.856Z,69.94
2022-11-09T09:12:11.450Z,70.01
2022-11-09T09:14:38.100Z,70.16
2022-11-09T09:17:04.919Z,69.87
2022-11-09T09:19:32.138Z,69.84
2022-11-09T09:21:59.298Z,69.63
2022-11-09T09:24:26.982Z,69.36
2022-11-09T09:26:53.907Z,72.17
2022-11-09T09:29:20.606Z,72.98
2022-11-09T09:31:48.255Z,69.96
2022-11-09T09:34:15.477Z,68.44
2022-11-09T09:36:47.724Z,68.60
2022-11-09T09:39:15.072Z,66.58
2022-11-09T09:41:50.507Z,67.33
2022-11-09T09:44:40.335Z,67.08
2022-11-09T09:47:22.340Z,66.93
2022-11-09T09:50:03.012Z,67.09
2022-11-09T09:52:41.729Z,67.36
2022-11-09T09:55:14.497Z,68.26
2022-11-09T09:57:46.732Z,68.01
2022-11-09T10:00:21.968Z,67.27
2022-11-09T10:02:49.765Z,67.17
2022-11-09T10:05:17.500Z,66.74
2022-11-09T10:08:20.087Z,67.07
2022-11-09T10:11:09.358Z,67.52
2022-11-09T10:13:52.222Z,67.35
2022-11-09T10:16:37.524Z,67.25
2022-11-09T10:19:26.583Z,67.65
2022-11-09T10:22:31.596Z,68.14
2022-11-09T10:27:53.541Z,67.82
2022-11-09T10:30:22.715Z,67.89
2022-11-09T10:32:54.299Z,67.72
2022-11-09T10:35:35.247Z,68.37
2022-11-09T10:38:01.907Z,68.56
2022-11-09T10:40:45.654Z,68.21
2022-11-09T10:43:14.647Z,68.29
2022-11-09T10:45:43.164Z,68.35
2022-11-09T10:48:12.894Z,68.28
2022-11-09T10:50:54.380Z,68.16
2022-11-09T10:53:23.502Z,68.12
2022-11-09T10:55:56.995Z,67.74
2022-11-09T10:58:40.522Z,68.12
2022-11-09T11:01:23.056Z,68.09
2022-11-09T11:03:54.704Z,67.39
2022-11-09T11:06:21.165Z,67.25
2022-11-09T11:08:49.185Z,67.42
2022-11-09T11:11:37.675Z,67.67
2022-11-09T11:14:15.850Z,67.68
2022-11-09T11:16:46.464Z,67.61
2022-11-09T11:19:38.764Z,67.72
2022-11-09T11:22:08.490Z,67.62
2022-11-09T11:24:52.825Z,66.87
2022-11-09T11:27:32.431Z,67.35
2022-11-09T11:30:20.184Z,67.45
2022-11-09T11:32:50.425Z,67.05
2022-11-09T11:35:37.250Z,67.20
2022-11-09T11:38:15.967Z,67.76
2022-11-09T11:41:05.072Z,68.02
2022-11-09T11:43:49.870Z,67.73
2022-11-09T11:46:44.485Z,67.70
2022-11-09T11:49:30.556Z,67.43
2022-11-09T11:52:05.967Z,67.42
2022-11-09T11:55:07.936Z,67.16
2022-11-09T11:57:46.243Z,67.48
2022-11-09T12:00:19.012Z,67.37
2022-11-09T12:02:48.616Z,66.64
2022-11-09T12:05:34.116Z,66.88
2022-11-09T12:08:12.696Z,67.00
2022-11-09T12:10:45.130Z,67.14
2022-11-09T12:13:14.732Z,66.71
2022-11-09T12:15:51.249Z,66.47
2022-11-09T12:18:34.159Z,66.37
2022-11-09T12:21:19.044Z,66.49
2022-11-09T12:23:54.410Z,66.10
2022-11-09T12:27:10.829Z,65.81
2022-11-09T12:30:06.366Z,65.65
2022-11-09T12:32:46.486Z,65.94
2022-11-09T12:35:25.695Z,65.43
2022-11-09T12:37:56.331Z,65.45
2022-11-09T12:40:30.409Z,65.68
2022-11-09T12:43:18.735Z,65.94
2022-11-09T12:45:45.845Z,65.99
2022-11-09T12:48:20.471Z,66.07
2022-11-09T12:50:47.726Z,65.90
2022-11-09T12:53:14.781Z,65.82
2022-11-09T12:55:52.027Z,65.65
2022-11-09T12:58:27.430Z,65.78
2022-11-09T13:00:56.847Z,65.45
2022-11-09T13:03:32.265Z,65.33
2022-11-09T13:06:26.279Z,65.48
2022-11-09T13:08:58.824Z,65.42
2022-11-09T13:11:49.563Z,65.71
2022-11-09T13:14:22.257Z,65.77
2022-11-09T13:16:50.812Z,65.42
2022-11-09T13:19:35.825Z,65.55
2022-11-09T13:22:12.545Z,65.70
2022-11-09T13:25:02.298Z,65.35
2022-11-09T13:27:43.915Z,65.46
2022-11-09T13:30:25.455Z,65.69
2022-11-09T13:33:07.317Z,65.55
2022-11-09T13:35:43.182Z,65.75
2022-11-09T13:38:16.820Z,65.86
2022-11-09T13:40:55.231Z,65.85
2022-11-09T13:43:30.282Z,66.22
2022-11-09T13:46:05.773Z,66.66
2022-11-09T13:48:38.446Z,66.70
2022-11-09T13:51:20.819Z,66.67
2022-11-09T13:54:00.008Z,66.79
2022-11-09T13:56:28.469Z,66.70
2022-11-09T13:59:06.311Z,66.79
2022-11-09T14:01:38.310Z,67.04
2022-11-09T14:04:05.301Z,66.95
2022-11-09T14:06:33.291Z,67.13
2022-11-09T14:09:01.154Z,67.36
2022-11-09T14:11:36.783Z,67.27
2022-11-09T14:14:31.684Z,67.41
2022-11-09T14:17:14.922Z,67.54
2022-11-09T14:20:00.252Z,67.40
2022-11-09T14:22:31.662Z,67.50
2022-11-09T14:24:58.301Z,67.83
2022-11-09T14:27:25.019Z,68.09
2022-11-09T14:30:02.638Z,67.76
2022-11-09T14:32:35.862Z,67.87
2022-11-09T14:35:31.062Z,67.94
2022-11-09T14:38:00.119Z,68.18
2022-11-09T14:40:31.098Z,68.36
2022-11-09T14:43:00.284Z,68.70
2022-11-09T14:45:28.304Z,68.79
2022-11-09T14:47:58.680Z,68.85
2022-11-09T14:50:27.711Z,69.20
2022-11-09T14:52:55.923Z,69.36
2022-11-09T14:55:24.272Z,69.26
2022-11-09T14:57:53.483Z,69.41
2022-11-09T15:00:30.997Z,69.36
2022-11-09T15:02:57.778Z,69.57
2022-11-09T15:05:39.883Z,69.64
2022-11-09T15:08:21.763Z,69.79
2022-11-09T15:10:51.557Z,69.93
2022-11-09T15:13:20.365Z,70.11
2022-11-09T15:15:52.249Z,70.12
2022-11-09T15:18:44.821Z,70.35
2022-11-09T15:21:26.817Z,70.44
2022-11-09T15:24:25.312Z,70.50
2022-11-09T15:26:53.280Z,70.58
2022-11-09T15:29:30.569Z,70.65
2022-11-09T15:32:07.119Z,70.60
2022-11-09T15:34:42.235Z,70.74
2022-11-09T15:37:31.361Z,71.18
2022-11-09T15:39:58.872Z,71.03
2022-11-09T15:42:26.833Z,71.26
2022-11-09T15:44:56.433Z,71.11
2022-11-09T15:47:37.958Z,71.36
2022-11-09T15:50:15.464Z,71.40
2022-11-09T15:52:44.442Z,71.69
2022-11-09T15:55:16.353Z,71.85
2022-11-09T15:57:43.934Z,72.08
2022-11-09T16:00:19.271Z,72.04
2022-11-09T16:02:47.522Z,72.18
2022-11-09T16:05:15.126Z,72.21
2022-11-09T16:07:53.102Z,72.27
2022-11-09T16:10:23.311Z,72.56
2022-11-09T16:12:53.414Z,72.73
2022-11-09T16:15:20.412Z,72.66
2022-11-09T16:17:49.711Z,72.77
2022-11-09T16:20:17.816Z,72.88
2022-11-09T16:22:44.730Z,72.84
2022-11-09T16:25:12.384Z,73.00
2022-11-09T16:27:55.278Z,72.87
2022-11-09T16:30:22.551Z,72.67
2022-11-09T16:32:49.611Z,73.21
2022-11-09T16:35:31.472Z,73.26
2022-11-09T16:37:59.766Z,73.28
2022-11-09T16:40:27.760Z,73.15
2022-11-09T16:42:54.672Z,73.23
2022-11-09T16:45:21.829Z,73.43
2022-11-09T16:47:56.807Z,73.56
2022-11-09T16:50:24.272Z,73.66
2022-11-09T16:52:52.194Z,73.96
2022-11-09T16:55:18.934Z,73.77
2022-11-09T16:57:46.318Z,73.95
2022-11-09T17:00:13.783Z,73.87
2022-11-09T17:02:40.611Z,74.25
2022-11-09T17:05:07.788Z,74.38
2022-11-09T17:07:42.095Z,74.45
2022-11-09T17:10:09.934Z,74.62
2022-11-09T17:12:36.544Z,74.93
2022-11-09T17:15:03.235Z,74.89
2022-11-09T17:17:30.028Z,74.95
2022-11-09T17:19:56.589Z,75.05
2022-11-09T17:22:23.303Z,75.36
2022-11-09T17:24:50.058Z,75.40
2022-11-09T17:27:16.577Z,75.56
2022-11-09T17:29:43.118Z,75.51
2022-11-09T17:32:10.228Z,75.62
2022-11-09T17:34:36.827Z,75.70
2022-11-09T17:37:05.100Z,76.02
2022-11-09T17:39:33.067Z,75.85
2022-11-09T17:41:59.716Z,75.92
2022-11-09T17:44:26.588Z,76.21
2022-11-09T17:46:53.258Z,76.31
2022-11-09T17:49:19.806Z,76.23
2022-11-09T17:51:46.316Z,76.16
2022-11-09T17:54:14.773Z,76.40
2022-11-09T17:56:41.456Z,76.26
2022-11-09T17:59:08.075Z,76.35
2022-11-09T18:01:41.042Z,76.46
2022-11-09T18:04:10.286Z,76.39
2022-11-09T18:06:38.007Z,76.29
2022-11-09T18:09:40.186Z,76.00
2022-11-09T18:11:51.777Z,76.50
2022-11-09T18:14:18.440Z,76.42
2022-11-09T18:16:45.379Z,76.17
2022-11-09T18:19:12.731Z,75.98
2022-11-09T18:21:39.298Z,76.36
2022-11-09T18:24:06.373Z,76.09
2022-11-09T18:26:33.210Z,75.97
2022-11-09T18:29:00.351Z,76.13
2022-11-09T18:31:27.154Z,75.96
2022-11-09T18:33:53.905Z,76.25
2022-11-09T18:36:21.741Z,75.79
2022-11-09T18:38:51.226Z,75.88
2022-11-09T18:41:24.236Z,75.77
2022-11-09T18:43:51.986Z,75.82
2022-11-09T18:46:20.061Z,75.97
2022-11-09T18:48:53.464Z,76.02
2022-11-09T18:51:20.507Z,76.05
2022-11-09T18:53:50.709Z,75.94
2022-11-09T18:56:24.115Z,76.17
2022-11-09T18:58:55.690Z,75.97
2022-11-09T19:01:25.074Z,76.27
2022-11-09T19:03:57.748Z,76.11
2022-11-09T19:06:26.232Z,75.71
2022-11-09T19:09:13.225Z,76.22
2022-11-09T19:11:39.828Z,76.13
2022-11-09T19:14:06.816Z,75.84
2022-11-09T19:16:33.412Z,75.97
2022-11-09T19:19:00.050Z,75.96
2022-11-09T19:21:42.682Z,76.01
2022-11-09T19:24:12.922Z,76.07
2022-11-09T19:26:39.956Z,76.13
2022-11-09T19:29:07.720Z,75.92
2022-11-09T19:31:34.899Z,75.99
2022-11-09T19:34:01.506Z,76.28
2022-11-09T19:36:31.455Z,76.18
2022-11-09T19:38:58.321Z,76.46
2022-11-09T19:41:25.608Z,76.44
2022-11-09T19:43:54.839Z,76.10
2022-11-09T19:46:21.965Z,76.10
2022-11-09T19:48:48.700Z,76.23
2022-11-09T19:51:16.941Z,76.56
2022-11-09T19:53:50.127Z,76.56
2022-11-09T19:56:18.356Z,76.64
2022-11-09T19:58:49.434Z,76.49
2022-11-09T20:01:16.386Z,76.83
2022-11-09T20:03:43.448Z,77.01
2022-11-09T20:06:09.987Z,76.97
2022-11-09T20:08:37.757Z,77.43
2022-11-09T20:11:08.971Z,77.21
2022-11-09T20:13:38.395Z,76.56
2022-11-09T20:16:07.785Z,77.35
2022-11-09T20:18:38.253Z,77.41
2022-11-09T20:21:06.894Z,77.16
2022-11-09T20:23:33.726Z,77.08
2022-11-09T20:26:08.332Z,76.71
2022-11-09T20:28:34.950Z,77.30
2022-11-09T20:31:07.762Z,77.05
2022-11-09T20:33:34.411Z,77.58
2022-11-09T20:36:00.997Z,77.46
2022-11-09T20:38:27.812Z,77.45
2022-11-09T20:40:55.956Z,77.23
2022-11-09T20:43:23.422Z,78.48
2022-11-09T20:45:50.963Z,78.18
2022-11-09T20:48:38.557Z,78.66
2022-11-09T20:51:08.555Z,78.61
2022-11-09T20:53:35.719Z,78.70
2022-11-09T20:56:02.380Z,78.96
2022-11-09T20:58:30.031Z,79.21
2022-11-09T21:01:21.874Z,79.34
2022-11-09T21:03:51.127Z,79.53
2022-11-09T21:06:18.609Z,79.82
2022-11-09T21:08:50.754Z,79.65
2022-11-09T21:11:18.277Z,79.56
2022-11-09T21:13:51.090Z,79.97
2022-11-09T21:16:19.370Z,79.86
2022-11-09T21:18:46.126Z,79.33
2022-11-09T21:21:15.832Z,79.52
2022-11-09T21:24:01.451Z,79.33
2022-11-09T21:26:47.792Z,79.90
2022-11-09T21:29:35.367Z,79.50
2022-11-09T21:32:02.202Z,79.45
2022-11-09T21:34:35.417Z,79.80
2022-11-09T21:37:05.119Z,80.36
2022-11-09T21:39:32.154Z,81.55
2022-11-09T21:41:58.851Z,80.76
2022-11-09T21:44:27.603Z,79.15
2022-11-09T21:46:54.177Z,79.48
2022-11-09T21:49:20.715Z,78.91
2022-11-09T21:51:47.565Z,78.68
2022-11-09T21:54:14.375Z,78.46
2022-11-09T21:56:40.929Z,77.63
2022-11-09T21:59:08.036Z,77.44
2022-11-09T22:01:35.148Z,77.17
2022-11-09T22:04:01.997Z,77.31
2022-11-09T22:06:28.812Z,76.75
2022-11-09T22:08:55.492Z,78.24
2022-11-09T22:11:43.156Z,78.39
2022-11-09T22:14:32.721Z,78.94
2022-11-09T22:16:59.827Z,79.51
2022-11-09T22:19:45.915Z,79.56
2022-11-09T22:22:13.587Z,79.48
2022-11-09T22:24:40.290Z,79.56
2022-11-09T22:27:07.581Z,79.29
2022-11-09T22:29:34.314Z,80.03
2022-11-09T22:32:00.946Z,79.29
2022-11-09T22:34:27.815Z,79.52
2022-11-09T22:36:54.422Z,80.15
2022-11-09T22:39:21.193Z,79.75
2022-11-09T22:41:47.825Z,79.73
2022-11-09T22:44:14.368Z,79.79
2022-11-09T22:46:40.977Z,79.80
2022-11-09T22:49:08.886Z,79.87
2022-11-09T22:51:35.626Z,79.94
2022-11-09T22:54:02.217Z,79.77
2022-11-09T22:56:28.717Z,79.74
2022-11-09T22:58:55.319Z,79.88
2022-11-09T23:01:22.010Z,80.18
2022-11-09T23:03:48.715Z,80.26
2022-11-09T23:06:21.105Z,79.98
2022-11-09T23:08:48.882Z,80.73
2022-11-09T23:11:23.151Z,80.27
2022-11-09T23:13:51.858Z,80.23
2022-11-09T23:16:19.488Z,80.55
2022-11-09T23:18:56.251Z,80.24
2022-11-09T23:21:28.449Z,80.18
2022-11-09T23:24:03.894Z,80.09
2022-11-09T23:26:31.330Z,80.05
2022-11-09T23:28:58.145Z,80.07
2022-11-09T23:31:25.586Z,79.79
2022-11-09T23:33:54.604Z,79.53
2022-11-09T23:36:22.730Z,80.09
2022-11-09T23:38:49.845Z,80.68
2022-11-09T23:41:17.151Z,80.90
2022-11-09T23:43:48.717Z,81.12
2022-11-09T23:46:17.165Z,80.49
2022-11-09T23:48:43.854Z,80.80
2022-11-09T23:51:11.125Z,79.98
2022-11-09T23:53:38.084Z,80.59
2022-11-09T23:56:09.965Z,80.59
2022-11-09T23:58:37.417Z,80.59
